Time;durP1;ratioP1;P1;durP2;ratioP2;P2;SDS_P1;SDS_P2;PMS_P1;PMS_P2;Temp;Humidity;BMP_temperature;BMP_pressure;BME280_temperature;BME280_humidity;BME280_pressure;Samples;Min_cycle;Max_cycle;Signal;HPM_P1;HPM_P2
2024/03/01 00:02:14;;;;;;;8.68;1.58;;;;;;;5.23;74.55;98499.22;5059120;28;20064;-47
2024/03/01 00:04:42;;;;;;;6.18;1.10;;;;;;;5.19;75.38;98494.97;5045036;28;20049;-44
2024/03/01 00:07:08;;;;;;;5.68;1.73;;;;;;;5.14;74.91;98503.56;5039989;28;20061;-48
2024/03/01 00:09:35;;;;;;;4.60;1.65;;;;;;;5.11;74.58;98498.47;5046927;28;20053;-51
2024/03/01 00:12:02;;;;;;;4.70;1.92;;;;;;;5.09;74.69;98496.75;5066471;28;20052;-44
2024/03/01 00:14:29;;;;;;;7.40;1.65;;;;;;;5.05;74.69;98495.91;5062781;28;20040;-44
2024/03/01 00:16:56;;;;;;;10.40;1.42;;;;;;;5.02;75.57;98488.22;5055111;28;20060;-46
2024/03/01 00:19:23;;;;;;;4.43;1.80;;;;;;;4.96;75.51;98483.97;5058761;28;20048;-44
2024/03/01 00:21:50;;;;;;;5.95;2.30;;;;;;;4.90;75.07;98481.47;5057138;28;20786;-45
2024/03/01 00:24:17;;;;;;;4.30;1.35;;;;;;;4.85;74.58;98493.44;5056944;28;20096;-49
2024/03/01 00:26:45;;;;;;;10.85;1.38;;;;;;;4.77;74.61;98490.91;5058013;28;20505;-45
2024/03/01 00:29:12;;;;;;;2.58;1.15;;;;;;;4.73;74.91;98486.66;5056469;28;20102;-50
2024/03/01 00:31:40;;;;;;;3.45;1.73;;;;;;;4.68;75.00;98480.69;5056347;28;20560;-46
2024/03/01 00:34:06;;;;;;;1.95;1.02;;;;;;;4.62;75.67;98481.56;5061374;28;20140;-46
2024/03/01 00:36:34;;;;;;;5.72;1.98;;;;;;;4.58;75.16;98475.59;5059245;28;20099;-44
2024/03/01 00:39:01;;;;;;;7.70;2.72;;;;;;;4.53;75.01;98477.34;5066676;28;20793;-44
2024/03/01 00:41:29;;;;;;;10.73;1.30;;;;;;;4.48;75.26;98479.03;5048450;28;20049;-47
2024/03/01 00:43:58;;;;;;;5.95;3.13;;;;;;;4.44;75.35;98483.34;5049201;28;20060;-48
2024/03/01 00:46:26;;;;;;;4.18;0.77;;;;;;;4.41;75.75;98482.47;5051967;28;20053;-45
2024/03/01 00:48:54;;;;;;;6.80;1.60;;;;;;;4.36;75.23;98480.78;5069913;28;20066;-47
2024/03/01 00:51:23;;;;;;;3.42;1.35;;;;;;;4.32;75.15;98479.09;5066227;28;20048;-44
2024/03/01 00:53:50;;;;;;;2.03;0.80;;;;;;;4.29;75.51;98468.84;5070689;28;20052;-45
2024/03/01 00:56:17;;;;;;;2.35;1.35;;;;;;;4.25;74.98;98477.41;5063512;28;20128;-47
2024/03/01 00:58:44;;;;;;;2.60;1.45;;;;;;;4.19;75.56;98473.13;5057656;28;20049;-48
2024/03/01 01:01:12;;;;;;;4.53;1.10;;;;;;;4.16;75.35;98462.06;5051636;28;20048;-45
2024/03/01 01:03:39;;;;;;;8.02;0.65;;;;;;;4.11;75.69;98462.06;5063014;28;20851;-46
2024/03/01 01:06:06;;;;;;;5.03;0.80;;;;;;;4.06;75.77;98459.50;5056543;28;20397;-49
2024/03/01 01:08:33;;;;;;;1.55;0.40;;;;;;;4.01;75.73;98452.69;5064853;28;20053;-46
2024/03/01 01:11:00;;;;;;;1.48;1.23;;;;;;;4.00;75.97;98456.97;5062112;28;20402;-46
2024/03/01 01:13:28;;;;;;;4.07;0.80;;;;;;;3.95;76.01;98458.69;5062520;28;20040;-45
2024/03/01 01:15:55;;;;;;;3.20;0.85;;;;;;;3.92;76.41;98451.84;5067684;28;20057;-44
2024/03/01 01:18:22;;;;;;;0.68;0.50;;;;;;;3.88;76.26;98452.69;5065583;28;20135;-45
2024/03/01 01:20:49;;;;;;;2.35;1.08;;;;;;;3.86;76.25;98445.00;5064115;28;20087;-49
2024/03/01 01:23:16;;;;;;;4.30;1.05;;;;;;;3.82;76.29;98433.06;5061233;28;20488;-46
2024/03/01 01:25:42;;;;;;;2.30;0.95;;;;;;;3.80;76.21;98437.34;5062185;28;20063;-44
2024/03/01 01:28:09;;;;;;;7.32;1.20;;;;;;;3.77;76.49;98429.66;5064065;28;20052;-43
2024/03/01 01:30:37;;;;;;;2.10;1.10;;;;;;;3.77;76.20;98427.09;5060500;28;20066;-43
2024/03/01 01:33:04;;;;;;;1.30;0.55;;;;;;;3.75;76.25;98421.13;5061866;28;20059;-46
2024/03/01 01:35:33;;;;;;;3.30;0.85;;;;;;;3.72;76.46;98411.75;5057613;28;20056;-46
2024/03/01 01:38:00;;;;;;;2.05;0.85;;;;;;;3.67;76.45;98415.16;5066431;28;20504;-51
2024/03/01 01:40:30;;;;;;;2.17;0.95;;;;;;;3.63;76.53;98419.44;5060762;28;20045;-46
2024/03/01 01:43:02;;;;;;;6.00;0.77;;;;;;;3.63;76.26;98416.00;5062998;28;20749;-43
2024/03/01 01:45:32;;;;;;;4.80;1.35;;;;;;;3.59;76.38;98410.06;5055850;28;20573;-48
2024/03/01 01:48:02;;;;;;;1.50;0.82;;;;;;;3.56;76.20;98404.94;5046313;28;20052;-45
2024/03/01 01:50:31;;;;;;;1.05;0.60;;;;;;;3.49;76.83;98404.09;5058893;28;20060;-47
2024/03/01 01:53:01;;;;;;;2.15;0.50;;;;;;;3.48;76.91;98387.03;5063877;28;20056;-47
2024/03/01 01:55:31;;;;;;;1.10;0.82;;;;;;;3.42;77.14;98382.78;5061721;28;20398;-52
2024/03/01 01:57:59;;;;;;;1.42;1.10;;;;;;;3.43;76.75;98384.47;5063942;28;20048;-44
2024/03/01 02:00:28;;;;;;;2.35;0.50;;;;;;;3.40;77.55;98378.47;5065524;28;20063;-44
2024/03/01 02:02:55;;;;;;;1.48;0.75;;;;;;;3.41;77.39;98375.09;5061288;28;20060;-45
2024/03/01 02:05:22;;;;;;;3.92;0.80;;;;;;;3.38;77.76;98375.09;5062252;28;20055;-47
2024/03/01 02:07:49;;;;;;;3.55;0.75;;;;;;;3.37;77.59;98361.44;5062669;28;20796;-44
2024/03/01 02:10:16;;;;;;;2.45;1.20;;;;;;;3.36;77.32;98356.31;5059795;28;20059;-45
2024/03/01 02:15:30;;;;;;;2.10;1.85;;;;;;;3.32;77.00;98346.06;5119354;27;20409;-43
2024/03/01 02:17:57;;;;;;;1.67;1.58;;;;;;;3.24;77.38;98337.53;5085538;28;20055;-46
2024/03/01 02:20:27;;;;;;;1.98;1.88;;;;;;;3.27;77.26;98345.22;5083081;28;20055;-47
2024/03/01 02:23:00;;;;;;;6.35;2.67;;;;;;;3.25;77.63;98344.41;5081217;28;20052;-43
2024/03/01 02:25:26;;;;;;;4.72;1.48;;;;;;;3.22;77.29;98340.09;5081691;28;20060;-44
2024/03/01 02:27:53;;;;;;;2.08;1.98;;;;;;;3.16;77.71;98329.03;5082559;28;20412;-43
2024/03/01 02:30:21;;;;;;;3.72;2.25;;;;;;;3.13;78.03;98318.78;5078673;28;20049;-48
2024/03/01 02:32:49;;;;;;;1.98;1.73;;;;;;;3.10;77.84;98316.25;5081091;28;20053;-47
2024/03/01 02:35:17;;;;;;;2.33;1.75;;;;;;;3.06;78.05;98308.56;5079951;28;20079;-48
2024/03/01 02:37:44;;;;;;;9.85;2.97;;;;;;;3.03;78.96;98303.44;5074750;28;20080;-44
2024/03/01 02:40:11;;;;;;;3.15;2.95;;;;;;;3.00;78.86;98297.50;5081288;28;20052;-48
2024/03/01 02:42:39;;;;;;;1.98;1.80;;;;;;;2.93;78.41;98292.38;5076005;28;20071;-47
2024/03/01 02:45:07;;;;;;;2.47;2.30;;;;;;;2.95;78.89;98279.59;5080908;28;20108;-44
2024/03/01 02:47:33;;;;;;;4.43;2.00;;;;;;;2.91;78.83;98278.72;5078912;28;20512;-49
2024/03/01 02:50:00;;;;;;;2.15;1.25;;;;;;;2.88;78.32;98267.66;5076205;28;20048;-43
2024/03/01 02:52:29;;;;;;;2.13;1.95;;;;;;;2.85;79.46;98272.75;5080741;28;20048;-45
2024/03/01 02:54:56;;;;;;;1.65;1.55;;;;;;;2.83;79.31;98271.06;5081335;28;20076;-43
2024/03/01 02:57:22;;;;;;;2.13;1.98;;;;;;;2.81;79.28;98259.97;5082794;28;20124;-45
2024/03/01 02:59:50;;;;;;;1.80;1.70;;;;;;;2.76;79.61;98253.16;5074438;28;20058;-49
2024/03/01 03:02:16;;;;;;;1.92;1.83;;;;;;;2.75;79.25;98257.44;5080516;28;20051;-47
2024/03/01 03:04:43;;;;;;;2.53;1.83;;;;;;;2.77;78.93;98242.94;5077488;28;20126;-44
2024/03/01 03:07:10;;;;;;;8.45;1.92;;;;;;;2.73;78.73;98241.22;5086576;28;20047;-43
2024/03/01 03:09:42;;;;;;;1.77;1.63;;;;;;;2.69;79.80;98231.84;5074574;28;20048;-44
2024/03/01 03:12:11;;;;;;;1.90;1.77;;;;;;;2.69;79.31;98232.72;5072677;28;20404;-43
2024/03/01 03:14:38;;;;;;;3.67;2.70;;;;;;;2.68;79.49;98214.81;5082354;28;20056;-44
2024/03/01 03:17:05;;;;;;;2.90;2.15;;;;;;;2.65;79.32;98209.69;5074647;28;20057;-51
2024/03/01 03:19:33;;;;;;;2.08;1.98;;;;;;;2.60;78.96;98196.91;5081489;28;20052;-45
2024/03/01 03:22:00;;;;;;;5.90;2.17;;;;;;;2.59;80.00;98204.56;5078339;28;20047;-48
2024/03/01 03:24:27;;;;;;;2.80;2.58;;;;;;;2.55;79.87;98198.63;5074716;28;20037;-47
2024/03/01 03:26:54;;;;;;;3.70;1.83;;;;;;;2.55;79.96;98181.59;5066058;28;20059;-48
2024/03/01 03:29:21;;;;;;;2.45;1.95;;;;;;;2.52;80.27;98179.03;5065696;28;20091;-45
2024/03/01 03:31:47;;;;;;;2.28;2.17;;;;;;;2.46;79.17;98175.66;5068712;28;20044;-45
2024/03/01 03:34:14;;;;;;;3.20;2.15;;;;;;;2.43;80.18;98164.56;5066246;28;20045;-45
2024/03/01 03:36:40;;;;;;;1.67;1.58;;;;;;;2.41;80.41;98163.72;5062513;28;20110;-48
2024/03/01 03:39:09;;;;;;;2.35;1.55;;;;;;;2.37;80.08;98168.81;5070684;28;20058;-47
2024/03/01 03:41:35;;;;;;;2.20;2.10;;;;;;;2.32;79.68;98150.94;5073346;28;20086;-45
2024/03/01 03:44:03;;;;;;;11.68;3.38;;;;;;;2.28;80.56;98149.22;5068069;28;20167;-45
2024/03/01 03:46:30;;;;;;;2.20;2.05;;;;;;;2.26;79.76;98144.13;5068427;28;20052;-47
2024/03/01 03:48:58;;;;;;;2.30;1.70;;;;;;;2.26;81.34;98151.78;5066388;28;20059;-45
2024/03/01 03:54:04;;;;;;;0.68;0.60;;;;;;;2.21;80.14;98135.59;5078283;28;20388;-48
2024/03/01 03:56:31;;;;;;;1.10;0.38;;;;;;;2.11;80.74;98114.31;5013859;28;20045;-45
2024/03/01 03:58:58;;;;;;;0.93;0.50;;;;;;;2.15;80.33;98112.59;5019890;28;20099;-49
2024/03/01 04:01:26;;;;;;;1.33;0.52;;;;;;;2.07;80.71;98099.84;5023823;28;20427;-44
2024/03/01 04:03:53;;;;;;;0.68;0.40;;;;;;;2.05;81.00;98096.44;5034073;28;20425;-43
2024/03/01 04:06:20;;;;;;;3.45;0.50;;;;;;;2.02;81.80;98097.28;5027966;28;20053;-46
2024/03/01 04:08:47;;;;;;;0.95;0.30;;;;;;;2.00;80.87;98093.91;5024164;28;20513;-46
2024/03/01 04:11:14;;;;;;;2.00;0.30;;;;;;;1.96;80.88;98097.28;5013324;28;20042;-47
2024/03/01 04:13:41;;;;;;;2.03;0.70;;;;;;;1.98;82.24;98089.63;5018641;28;20049;-45
2024/03/01 04:16:09;;;;;;;1.33;0.60;;;;;;;1.97;81.73;98088.78;5021921;28;20849;-48
2024/03/01 04:18:37;;;;;;;3.67;0.60;;;;;;;1.94;81.64;98078.56;5020182;28;20068;-46
2024/03/01 04:21:05;;;;;;;3.03;0.50;;;;;;;1.98;81.42;98071.75;5021390;28;20048;-46
2024/03/01 04:23:32;;;;;;;0.80;0.43;;;;;;;1.94;81.33;98047.91;5018434;28;20038;-46
2024/03/01 04:25:59;;;;;;;1.85;0.70;;;;;;;1.86;81.47;98052.19;5020675;28;20049;-43
2024/03/01 04:28:26;;;;;;;2.47;1.15;;;;;;;1.89;82.60;98047.91;5018231;28;20054;-42
2024/03/01 04:30:53;;;;;;;1.65;0.85;;;;;;;1.97;80.94;98047.06;5022603;28;20073;-51
2024/03/01 04:33:20;;;;;;;3.60;0.55;;;;;;;1.91;82.00;98037.69;5021932;28;20490;-46
2024/03/01 04:35:47;;;;;;;6.63;0.85;;;;;;;1.97;81.88;98036.84;5024067;28;20050;-44
2024/03/01 04:38:14;;;;;;;0.93;0.60;;;;;;;1.95;81.00;98020.69;5022351;28;20128;-45
2024/03/01 04:40:41;;;;;;;0.65;0.32;;;;;;;1.96;81.90;98005.34;5013766;28;20050;-46
2024/03/01 04:43:08;;;;;;;3.55;0.75;;;;;;;1.94;81.15;97996.84;5022582;28;20054;-44
2024/03/01 04:45:35;;;;;;;1.17;0.85;;;;;;;1.98;81.99;97992.59;5016360;28;20058;-44
2024/03/01 04:48:02;;;;;;;4.13;0.47;;;;;;;2.00;81.95;97975.56;5022083;28;20053;-49
2024/03/01 04:50:29;;;;;;;3.38;0.22;;;;;;;1.96;81.32;97968.78;5019599;28;20527;-45
2024/03/01 04:52:56;;;;;;;1.73;0.40;;;;;;;1.96;81.34;97971.31;5015476;28;20064;-44
2024/03/01 04:55:22;;;;;;;3.28;0.60;;;;;;;1.94;80.97;97948.34;5020727;28;20587;-43
2024/03/01 04:57:49;;;;;;;2.42;0.43;;;;;;;1.89;82.61;97939.84;5018189;28;20099;-46
2024/03/01 05:00:21;;;;;;;2.83;0.88;;;;;;;1.82;82.28;97930.50;5019754;28;20137;-46
2024/03/01 05:02:48;;;;;;;0.75;0.47;;;;;;;1.90;81.63;97923.66;5013367;28;20129;-44
2024/03/01 05:05:18;;;;;;;3.60;0.57;;;;;;;1.86;82.75;97914.31;5004782;28;20046;-45
2024/03/01 05:07:48;;;;;;;1.63;0.88;;;;;;;1.83;82.54;97911.75;5007679;28;20524;-49
2024/03/01 05:10:21;;;;;;;3.40;0.60;;;;;;;1.83;82.82;97914.31;5003311;28;20312;-45
2024/03/01 05:12:49;;;;;;;1.33;0.63;;;;;;;1.86;82.02;97901.56;5001454;28;20049;-43
2024/03/01 05:15:16;;;;;;;2.95;1.05;;;;;;;1.89;82.51;97902.38;5005497;28;20058;-49
2024/03/01 05:17:45;;;;;;;1.65;0.63;;;;;;;1.89;81.91;97891.34;5006284;28;20422;-44
2024/03/01 05:20:14;;;;;;;0.50;0.30;;;;;;;1.90;82.70;97893.03;5004875;28;20050;-47
2024/03/01 05:22:43;;;;;;;3.65;0.85;;;;;;;1.96;82.51;97893.00;5008100;28;20160;-47
2024/03/01 05:25:19;;;;;;;2.75;0.52;;;;;;;1.95;81.93;97887.94;5005718;28;20077;-43
2024/03/01 05:27:48;;;;;;;2.85;0.73;;;;;;;1.91;81.89;97887.06;4998823;28;20046;-47
2024/03/01 05:30:23;;;;;;;3.22;1.75;;;;;;;1.86;82.24;97891.34;5003063;28;20057;-48
2024/03/01 05:33:12;;;;;;;1.98;0.57;;;;;;;1.86;82.34;97891.34;5010608;28;20045;-47
2024/03/01 05:35:39;;;;;;;1.77;0.80;;;;;;;1.97;83.12;97884.50;5003019;28;20061;-45
2024/03/01 05:38:07;;;;;;;2.00;0.75;;;;;;;1.97;81.68;97883.66;5000679;28;20046;-48
2024/03/01 05:40:37;;;;;;;2.10;0.90;;;;;;;1.93;81.74;97875.16;5005107;28;20054;-46
2024/03/01 05:43:17;;;;;;;2.22;0.90;;;;;;;1.89;81.76;97871.75;5003244;28;20049;-50
2024/03/01 05:45:43;;;;;;;1.35;0.77;;;;;;;2.01;81.77;97858.09;5002685;28;20046;-45
2024/03/01 05:48:12;;;;;;;3.47;1.08;;;;;;;1.98;81.99;97860.66;5000671;28;20052;-42
2024/03/01 05:50:39;;;;;;;2.22;0.40;;;;;;;2.07;81.79;97848.72;5006017;28;20073;-45
2024/03/01 05:53:14;;;;;;;3.78;0.93;;;;;;;2.05;82.39;97851.28;4999875;28;20046;-48
2024/03/01 05:55:41;;;;;;;2.38;0.93;;;;;;;2.03;82.94;97835.94;5006151;28;20779;-47
2024/03/01 05:58:09;;;;;;;2.03;0.73;;;;;;;2.08;81.46;97838.50;5008500;28;20061;-48
2024/03/01 06:00:40;;;;;;;6.93;0.60;;;;;;;2.07;82.40;97828.28;5006220;28;20057;-48
2024/03/01 06:03:07;;;;;;;1.30;0.98;;;;;;;2.03;81.62;97823.19;5006825;28;20474;-46
2024/03/01 06:05:35;;;;;;;4.63;1.13;;;;;;;2.08;82.01;97819.75;5000645;28;20594;-46
2024/03/01 06:08:02;;;;;;;1.70;0.90;;;;;;;2.13;81.98;97807.84;4999351;28;20061;-45
2024/03/01 06:10:31;;;;;;;1.67;0.70;;;;;;;2.13;82.07;97803.56;5002348;28;20618;-50
2024/03/01 06:12:58;;;;;;;3.30;0.52;;;;;;;2.15;83.38;97801.88;5003157;28;20058;-45
2024/03/01 06:15:26;;;;;;;6.68;0.65;;;;;;;2.13;82.55;97787.41;5003158;28;20062;-46
2024/03/01 06:17:53;;;;;;;2.55;0.77;;;;;;;2.23;83.38;97798.44;5008614;28;20499;-44
2024/03/01 06:20:23;;;;;;;2.15;0.70;;;;;;;2.22;82.74;97779.69;5004855;28;20439;-49
2024/03/01 06:22:50;;;;;;;5.95;1.27;;;;;;;2.30;83.39;97770.25;5005101;28;20096;-46
2024/03/01 06:25:17;;;;;;;5.05;1.10;;;;;;;2.33;82.46;97763.47;5005382;28;20053;-46
2024/03/01 06:27:43;;;;;;;2.08;0.95;;;;;;;2.30;83.40;97764.31;5008022;28;20056;-45
2024/03/01 06:30:11;;;;;;;1.55;0.68;;;;;;;2.32;83.63;97752.38;5008191;28;20061;-45
2024/03/01 06:32:38;;;;;;;2.28;0.55;;;;;;;2.31;82.78;97736.22;5008366;28;20042;-44
2024/03/01 06:35:05;;;;;;;1.95;0.63;;;;;;;2.34;84.12;97739.59;5006806;28;20061;-49
2024/03/01 06:37:32;;;;;;;5.68;0.75;;;;;;;2.33;82.97;97727.69;5006646;28;20050;-47
2024/03/01 06:39:59;;;;;;;2.88;0.93;;;;;;;2.38;83.33;97733.59;5005947;28;20123;-46
2024/03/01 06:42:25;;;;;;;4.18;0.93;;;;;;;2.41;84.21;97713.16;5005256;28;20199;-44
2024/03/01 06:44:52;;;;;;;8.68;1.85;;;;;;;2.40;83.46;97708.91;5003720;28;20064;-46
2024/03/01 06:47:19;;;;;;;3.10;0.70;;;;;;;2.47;83.37;97700.34;4999879;28;20049;-47
2024/03/01 06:49:48;;;;;;;2.80;0.50;;;;;;;2.51;84.65;97696.91;5003843;28;20052;-46
2024/03/01 06:52:15;;;;;;;6.22;1.38;;;;;;;2.55;84.05;97693.44;5007477;28;20056;-44
2024/03/01 06:54:45;;;;;;;4.22;1.08;;;;;;;2.49;84.94;97673.06;5008016;28;20388;-48
2024/03/01 06:57:11;;;;;;;2.45;1.20;;;;;;;2.56;84.96;97668.72;5006854;28;20041;-52
2024/03/01 06:59:38;;;;;;;5.22;1.60;;;;;;;2.60;84.54;97669.56;4999764;28;20049;-47
2024/03/01 07:02:06;;;;;;;3.90;1.05;;;;;;;2.63;85.57;97664.44;5003720;28;20566;-45
2024/03/01 07:04:33;;;;;;;11.95;1.40;;;;;;;2.63;84.98;97649.91;4993614;28;20053;-46
2024/03/01 07:06:59;;;;;;;5.45;1.35;;;;;;;2.65;84.87;97644.81;5004231;28;20046;-50
2024/03/01 07:09:26;;;;;;;2.55;1.10;;;;;;;2.66;85.67;97629.44;5002780;28;20059;-46
2024/03/01 07:11:53;;;;;;;3.45;1.63;;;;;;;2.66;86.17;97615.81;5003783;28;20058;-47
2024/03/01 07:14:20;;;;;;;4.05;1.08;;;;;;;2.62;85.62;97601.38;5000370;28;20530;-43
2024/03/01 07:16:46;;;;;;;4.43;0.70;;;;;;;2.65;86.65;97597.09;4998860;28;20050;-48
2024/03/01 07:19:13;;;;;;;5.53;1.77;;;;;;;2.66;85.53;97577.47;5006125;28;20046;-46
2024/03/01 07:21:40;;;;;;;2.30;0.93;;;;;;;2.66;86.62;97578.34;4998664;28;20142;-47
2024/03/01 07:24:07;;;;;;;7.25;1.45;;;;;;;2.66;86.61;97567.25;5007274;28;20056;-47
2024/03/01 07:26:34;;;;;;;2.72;1.23;;;;;;;2.64;86.71;97559.59;5006696;28;20061;-45
2024/03/01 07:29:02;;;;;;;4.07;1.65;;;;;;;2.68;86.64;97537.41;5010110;28;20128;-45
2024/03/01 07:31:28;;;;;;;4.95;1.15;;;;;;;2.66;86.57;97521.25;5004007;28;20056;-46
2024/03/01 07:33:55;;;;;;;5.88;1.50;;;;;;;2.65;87.60;97529.78;5005811;28;20562;-47
2024/03/01 07:36:22;;;;;;;2.53;1.20;;;;;;;2.65;87.73;97504.22;5002028;28;20054;-43
2024/03/01 07:38:49;;;;;;;8.80;1.58;;;;;;;2.67;87.79;97502.50;5005643;28;20050;-45
2024/03/01 07:41:18;;;;;;;8.75;2.65;;;;;;;2.72;87.45;97487.94;5006065;28;20057;-45
2024/03/01 07:43:48;;;;;;;8.77;2.47;;;;;;;2.72;87.46;97470.06;5004827;28;20065;-43
2024/03/01 07:46:16;;;;;;;5.30;1.83;;;;;;;2.77;87.07;97457.22;5006738;28;20080;-45
2024/03/01 07:48:44;;;;;;;9.20;1.00;;;;;;;2.78;87.02;97464.88;5004242;28;20084;-45
2024/03/01 07:51:12;;;;;;;3.75;1.20;;;;;;;2.81;87.50;97452.03;5005412;28;20150;-45
2024/03/01 07:53:40;;;;;;;3.78;1.88;;;;;;;2.84;87.25;97448.63;5000752;28;20643;-49
2024/03/01 07:56:07;;;;;;;3.38;1.33;;;;;;;2.89;87.83;97445.97;5005552;28;20042;-49
2024/03/01 07:58:34;;;;;;;1.13;0.82;;;;;;;2.89;87.96;97445.97;4996386;28;20051;-43
2024/03/01 08:01:03;;;;;;;7.60;2.38;;;;;;;2.90;87.86;97432.34;5000679;28;20057;-46
2024/03/01 08:03:33;;;;;;;3.75;1.23;;;;;;;2.93;87.76;97422.91;4995470;28;20049;-44
2024/03/01 08:06:00;;;;;;;8.02;1.45;;;;;;;2.94;88.54;97414.38;4987318;28;20066;-47
2024/03/01 08:11:11;;;;;;;7.63;1.63;;;;;;;2.96;87.53;97401.56;5050736;27;20420;-45
2024/03/01 08:13:41;;;;;;;5.35;1.13;;;;;;;3.00;87.76;97398.09;5037704;28;20049;-43
2024/03/01 08:16:14;;;;;;;4.25;1.15;;;;;;;2.97;88.63;97410.91;5036046;28;20119;-44
2024/03/01 08:18:42;;;;;;;2.33;1.50;;;;;;;2.93;89.43;97381.16;5045710;28;20041;-43
2024/03/01 08:21:13;;;;;;;2.92;1.42;;;;;;;2.98;89.12;97379.38;5066169;28;20413;-45
2024/03/01 08:23:43;;;;;;;4.50;0.77;;;;;;;2.98;89.90;97384.50;5070352;28;20052;-47
2024/03/01 08:26:22;;;;;;;2.63;0.98;;;;;;;2.98;89.76;97389.59;5056666;28;20056;-47
2024/03/01 08:28:49;;;;;;;3.42;1.88;;;;;;;2.96;90.18;97365.75;5060021;28;20041;-45
2024/03/01 08:31:25;;;;;;;5.30;1.45;;;;;;;2.95;90.20;97384.53;5054598;28;20387;-46
2024/03/01 08:33:59;;;;;;;3.70;2.08;;;;;;;2.90;89.73;97366.69;5059445;28;20510;-47
2024/03/01 08:36:26;;;;;;;2.38;0.95;;;;;;;2.92;90.22;97371.78;5053716;28;20053;-44
2024/03/01 08:39:15;;;;;;;1.92;1.50;;;;;;;2.90;90.01;97371.00;5048625;28;20056;-43
2024/03/01 08:41:45;;;;;;;3.67;1.08;;;;;;;2.91;90.99;97357.31;5049484;28;20053;-43
2024/03/01 08:56:04;;;;;;;3.10;1.65;;;;;;;3.00;89.57;97352.06;5025682;27;20419;-46
2024/03/01 08:58:32;;;;;;;2.80;1.83;;;;;;;2.92;90.66;97339.41;4996260;28;20058;-45
2024/03/01 09:01:03;;;;;;;0.98;0.75;;;;;;;2.90;90.72;97330.06;5000340;28;20411;-51
2024/03/01 09:03:30;;;;;;;3.60;0.77;;;;;;;2.88;90.82;97326.69;5000506;28;20053;-46
2024/03/01 09:06:00;;;;;;;0.98;0.95;;;;;;;2.87;90.85;97325.00;4999109;28;20042;-41
2024/03/01 09:08:31;;;;;;;1.30;0.57;;;;;;;2.90;90.11;97340.31;4997121;28;20042;-46
2024/03/01 09:10:58;;;;;;;3.88;1.35;;;;;;;2.86;90.32;97329.25;4994143;28;20060;-45
2024/03/01 09:13:26;;;;;;;1.10;1.00;;;;;;;2.89;90.26;97328.38;4989463;28;20137;-49
2024/03/01 09:15:55;;;;;;;2.72;0.90;;;;;;;2.87;90.62;97336.06;4995154;28;20057;-45
2024/03/01 09:21:00;;;;;;;5.28;4.88;;;;;;;2.86;90.96;97323.28;5057558;27;20400;-43
2024/03/01 09:23:26;;;;;;;2.60;2.38;;;;;;;2.78;90.26;97320.88;4996760;28;20180;-44
2024/03/01 09:26:09;;;;;;;2.10;2.00;;;;;;;2.79;90.44;97313.19;5004466;28;20088;-44
2024/03/01 09:28:38;;;;;;;2.83;2.33;;;;;;;2.79;90.72;97323.41;5009742;28;20077;-46
2024/03/01 09:31:09;;;;;;;2.97;1.73;;;;;;;2.77;90.66;97314.91;5009278;28;20131;-43
2024/03/01 09:33:36;;;;;;;2.83;2.65;;;;;;;2.81;91.77;97310.59;5017525;28;20082;-44
2024/03/01 09:36:03;;;;;;;2.28;2.17;;;;;;;2.83;91.44;97329.31;5011873;28;20187;-47
2024/03/01 09:38:29;;;;;;;1.83;1.73;;;;;;;2.88;91.63;97311.34;5005038;28;20050;-45
2024/03/01 09:49:35;;;;;;;0.40;0.40;;;;;;;3.04;91.12;97307.66;5026588;28;20416;-42
2024/03/01 09:57:58;;;;;;;0.65;0.63;;;;;;;3.13;90.55;97310.94;5088814;27;20410;-45
2024/03/01 10:00:32;;;;;;;0.50;0.50;;;;;;;3.20;90.35;97318.50;5028708;28;20629;-46
2024/03/01 10:03:24;;;;;;;0.70;0.68;;;;;;;3.21;90.09;97309.13;5037714;28;20063;-42
2024/03/01 10:11:46;;;;;;;1.88;1.77;;;;;;;3.32;90.45;97314.03;4999267;28;20474;-43
2024/03/01 10:20:31;;;;;;;2.58;2.47;;;;;;;3.37;89.15;97303.72;5024699;28;20414;-44
2024/03/01 10:31:06;;;;;;;0.60;0.25;;;;;;;3.57;89.88;97316.13;5023145;28;20749;-44
2024/03/01 10:33:57;;;;;;;0.40;0.40;;;;;;;3.69;89.60;97309.97;4999509;28;20073;-43
2024/03/01 10:39:09;;;;;;;1.35;0.85;;;;;;;3.88;89.94;97309.59;5032925;28;20904;-45
2024/03/01 10:47:25;;;;;;;0.93;0.38;;;;;;;4.18;90.03;97308.13;5008462;28;20405;-44
2024/03/01 10:52:53;;;;;;;1.50;1.40;;;;;;;4.68;90.66;97311.31;5011174;28;20408;-43
2024/03/01 10:55:22;;;;;;;1.38;1.27;;;;;;;5.03;90.89;97306.25;4985940;28;20043;-45
2024/03/01 11:00:46;;;;;;;1.58;1.48;;;;;;;5.11;87.75;97310.31;5050160;27;20414;-46
2024/03/01 11:07:08;;;;;;;0.35;0.35;;;;;;;5.09;87.26;97322.31;5066528;27;20379;-43
2024/03/01 11:09:44;;;;;;;0.55;0.55;;;;;;;5.11;87.20;97315.44;5017637;28;20789;-46
2024/03/01 11:12:20;;;;;;;0.68;0.68;;;;;;;5.07;86.79;97315.56;5034393;28;20064;-45
2024/03/01 11:14:59;;;;;;;2.58;0.80;;;;;;;5.17;86.41;97316.16;5012164;28;20053;-44
2024/03/01 11:17:27;;;;;;;1.45;1.42;;;;;;;5.56;86.81;97310.03;4994296;28;20050;-46
2024/03/01 11:20:01;;;;;;;2.08;0.77;;;;;;;5.95;87.07;97306.44;5019900;28;20108;-45
2024/03/01 11:22:32;;;;;;;1.92;0.55;;;;;;;6.08;87.25;97307.78;5024126;28;20137;-47
2024/03/01 11:25:03;;;;;;;;;;;;;;;6.06;85.97;97314.72;5015479;28;20057;-48
2024/03/01 11:27:33;;;;;;;1.00;0.40;;;;;;;6.08;85.26;97312.91;5028340;28;19925;-45
2024/03/01 11:30:06;;;;;;;0.68;0.68;;;;;;;5.96;84.08;97308.09;5008407;28;20060;-46
2024/03/01 11:32:36;;;;;;;3.38;0.73;;;;;;;5.88;83.32;97316.88;5025719;28;20050;-44
2024/03/01 11:35:21;;;;;;;3.50;0.68;;;;;;;5.95;83.78;97316.72;5000542;28;20135;-48
2024/03/01 11:41:27;;;;;;;1.95;1.77;;;;;;;5.63;80.63;97327.81;5025355;27;20412;-44
2024/03/01 11:44:34;;;;;;;1.40;1.30;;;;;;;5.71;81.56;97342.19;4987416;28;20058;-46
2024/03/01 11:53:18;;;;;;;1.73;1.27;;;;;;;5.90;81.14;97343.38;5016425;28;20482;-47
2024/03/01 11:56:15;;;;;;;0.70;0.38;;;;;;;5.62;82.28;97356.97;4979856;28;20043;-49
2024/03/01 12:02:00;;;;;;;0.38;0.35;;;;;;;5.04;80.63;97360.09;5017673;28;20431;-46
2024/03/01 12:07:24;;;;;;;0.98;0.65;;;;;;;4.98;80.81;97358.50;5080215;27;20409;-47
2024/03/01 12:10:03;;;;;;;3.67;1.02;;;;;;;5.06;81.86;97368.56;5040256;28;20045;-43
2024/03/01 12:12:42;;;;;;;1.65;1.30;;;;;;;5.09;82.10;97381.34;5033372;28;20049;-45
2024/03/01 12:15:16;;;;;;;1.67;0.98;;;;;;;5.17;82.26;97372.63;5063734;28;20044;-52
2024/03/01 12:20:25;;;;;;;2.30;1.80;;;;;;;5.21;82.63;97381.94;5017442;28;20421;-48
2024/03/01 12:25:48;;;;;;;2.63;2.00;;;;;;;5.24;82.35;97379.28;5015867;28;20440;-46
2024/03/01 12:34:00;;;;;;;3.78;2.00;;;;;;;5.46;81.74;97386.44;5114261;27;20388;-47
2024/03/01 12:36:40;;;;;;;2.53;2.33;;;;;;;5.52;83.00;97381.16;5060983;28;20139;-42
2024/03/01 12:39:18;;;;;;;3.28;2.58;;;;;;;5.74;83.21;97385.78;5064490;28;20516;-47
2024/03/01 12:42:19;;;;;;;4.90;3.65;;;;;;;6.00;82.32;97386.78;5062057;28;20053;-46
2024/03/01 12:45:02;;;;;;;5.32;2.92;;;;;;;6.26;82.83;97380.13;5061045;28;20053;-47
2024/03/01 12:47:59;;;;;;;2.85;2.65;;;;;;;6.47;82.17;97385.53;5054866;28;20134;-47
2024/03/01 12:50:55;;;;;;;2.55;2.05;;;;;;;6.60;82.18;97381.72;5057648;28;20842;-50
2024/03/01 12:59:31;;;;;;;2.03;1.92;;;;;;;6.32;79.19;97387.66;5055860;27;20406;-50
2024/03/01 13:07:42;;;;;;;2.05;1.02;;;;;;;6.05;78.76;97395.25;5080225;27;20426;-45
2024/03/01 13:10:13;;;;;;;1.92;1.20;;;;;;;6.24;79.88;97400.72;5037834;28;20052;-47
2024/03/01 13:12:43;;;;;;;1.83;1.33;;;;;;;6.47;79.61;97398.38;5070805;28;20048;-44
2024/03/01 13:34:20;;;;;;;9.13;0.75;;;;;;;6.53;76.78;97411.06;5074161;27;20896;-48
2024/03/01 13:36:59;;;;;;;3.92;1.02;;;;;;;6.60;77.59;97428.00;5057027;28;20071;-47
2024/03/01 13:39:31;;;;;;;0.88;0.65;;;;;;;6.68;76.60;97431.19;5052989;28;20148;-47
2024/03/01 13:44:38;;;;;;;2.60;0.95;;;;;;;6.88;76.50;97436.63;5023580;27;20394;-47
2024/03/01 13:47:23;;;;;;;2.47;0.90;;;;;;;6.92;76.96;97449.38;5035762;28;20125;-45
2024/03/01 13:50:09;;;;;;;2.67;0.75;;;;;;;6.90;75.80;97451.16;5014287;28;20042;-50
2024/03/01 13:52:37;;;;;;;2.33;0.70;;;;;;;6.93;74.95;97443.34;5014008;28;20044;-49
2024/03/01 13:55:05;;;;;;;6.65;0.75;;;;;;;6.81;72.89;97452.28;5034371;28;20046;-46
2024/03/01 13:57:33;;;;;;;2.80;1.20;;;;;;;6.73;71.61;97438.78;5026013;28;20107;-44
2024/03/01 14:00:03;;;;;;;2.75;0.95;;;;;;;6.86;72.80;97452.13;5042024;28;20450;-45
2024/03/01 14:02:30;;;;;;;4.15;0.93;;;;;;;6.98;73.66;97457.78;5043514;28;20143;-46
2024/03/01 14:04:59;;;;;;;1.98;0.47;;;;;;;6.96;74.33;97460.44;5031711;28;20049;-44
2024/03/01 14:07:28;;;;;;;1.73;0.57;;;;;;;6.76;71.87;97464.41;5037866;28;20088;-45
2024/03/01 14:09:59;;;;;;;0.98;0.63;;;;;;;6.74;72.98;97470.50;5027026;28;20542;-46